Time;durP1;ratioP1;P1;durP2;ratioP2;P2;SDS_P1;SDS_P2;PMS_P1;PMS_P2;Temp;Humidity;BMP_temperature;BMP_pressure;BME280_temperature;BME280_humidity;BME280_pressure;Samples;Min_cycle;Max_cycle;Signal;HPM_P1;HPM_P2
2021/09/01 00:02:08;;;;;;;14.65;5.90;;;16.70;79.00;;;;;;5025645;28;20042;-69
2021/09/01 00:04:33;;;;;;;16.60;6.50;;;16.70;79.10;;;;;;5016433;28;20038;-68
2021/09/01 00:06:59;;;;;;;18.35;6.22;;;16.70;79.10;;;;;;5011486;28;20109;-68
2021/09/01 00:09:25;;;;;;;12.95;5.57;;;16.70;79.10;;;;;;5007765;28;20041;-67
2021/09/01 00:11:52;;;;;;;18.52;6.85;;;16.70;79.20;;;;;;5026182;28;20052;-68
2021/09/01 00:14:18;;;;;;;16.52;6.78;;;16.80;79.30;;;;;;5040659;28;20468;-68
2021/09/01 00:16:44;;;;;;;13.95;5.65;;;16.70;79.40;;;;;;5043332;28;20090;-71
2021/09/01 00:19:10;;;;;;;14.80;6.60;;;16.80;79.30;;;;;;5021541;28;20067;-68
2021/09/01 00:21:37;;;;;;;15.02;6.82;;;16.70;79.20;;;;;;5013773;28;20112;-67
2021/09/01 00:24:03;;;;;;;15.00;6.00;;;16.80;79.00;;;;;;5026137;28;20050;-68
2021/09/01 00:26:29;;;;;;;16.00;6.72;;;16.70;79.20;;;;;;5002211;28;20038;-68
2021/09/01 00:28:57;;;;;;;16.58;6.80;;;16.70;79.20;;;;;;5013669;28;20384;-68
2021/09/01 00:31:23;;;;;;;15.85;7.18;;;16.80;79.20;;;;;;5014053;28;20049;-68
2021/09/01 00:33:49;;;;;;;17.00;7.13;;;16.70;79.10;;;;;;5022408;28;20029;-68
2021/09/01 00:36:16;;;;;;;14.30;6.32;;;16.80;79.20;;;;;;5025488;28;20069;-68
2021/09/01 00:38:41;;;;;;;14.68;7.03;;;16.80;79.10;;;;;;5034118;28;20430;-69
2021/09/01 00:41:07;;;;;;;15.65;7.13;;;16.80;79.10;;;;;;5018316;28;20568;-70
2021/09/01 00:43:33;;;;;;;15.90;6.72;;;16.80;78.90;;;;;;5008316;28;20038;-70
2021/09/01 00:45:59;;;;;;;16.15;6.65;;;16.80;79.00;;;;;;5001004;28;20030;-69
2021/09/01 00:48:25;;;;;;;13.57;6.45;;;16.80;79.10;;;;;;4997043;28;20477;-69
2021/09/01 00:50:52;;;;;;;13.63;6.38;;;16.80;78.90;;;;;;4998308;28;20038;-69
2021/09/01 00:53:19;;;;;;;14.93;6.78;;;16.80;79.00;;;;;;5023125;28;20033;-68
2021/09/01 00:55:52;;;;;;;15.63;7.55;;;16.80;78.90;;;;;;5008536;28;20038;-69
2021/09/01 00:58:18;;;;;;;16.80;6.95;;;16.80;78.90;;;;;;4992663;28;20431;-68
2021/09/01 01:03:30;;;;;;;13.55;6.88;;;16.80;79.00;;;;;;5007267;28;20040;-69
2021/09/01 01:05:57;;;;;;;11.20;6.65;;;16.80;79.00;;;;;;5037828;28;20021;-68
2021/09/01 01:08:29;;;;;;;15.00;7.53;;;16.80;79.10;;;;;;5029512;28;20479;-69
2021/09/01 01:11:02;;;;;;;17.42;7.47;;;16.80;79.20;;;;;;5007999;28;20393;-69
2021/09/01 01:13:29;;;;;;;14.13;7.07;;;16.80;79.20;;;;;;4997033;28;20040;-68
2021/09/01 01:15:56;;;;;;;16.20;7.63;;;16.80;79.30;;;;;;4999975;28;20473;-68
2021/09/01 01:18:22;;;;;;;16.20;7.20;;;16.80;79.20;;;;;;5020778;28;20026;-68
2021/09/01 01:20:49;;;;;;;15.60;7.18;;;16.80;79.30;;;;;;5023556;28;20396;-69
2021/09/01 01:23:19;;;;;;;15.50;7.38;;;16.80;79.30;;;;;;5024849;28;20477;-70
2021/09/01 01:25:45;;;;;;;16.95;6.95;;;16.70;79.30;;;;;;5015482;28;20542;-69
2021/09/01 01:28:11;;;;;;;16.58;6.68;;;16.80;79.60;;;;;;5018940;28;20036;-70
2021/09/01 01:30:38;;;;;;;15.77;7.53;;;16.80;79.70;;;;;;5004859;28;20030;-68
2021/09/01 01:33:04;;;;;;;19.20;7.65;;;16.70;79.80;;;;;;5019278;28;20045;-69
2021/09/01 01:35:35;;;;;;;16.42;7.22;;;16.70;79.90;;;;;;5025304;28;20033;-68
2021/09/01 01:38:04;;;;;;;15.18;7.55;;;16.80;80.00;;;;;;5022215;28;20120;-69
2021/09/01 01:40:30;;;;;;;17.27;8.07;;;16.80;80.10;;;;;;5029498;28;20503;-68
2021/09/01 01:42:57;;;;;;;18.58;7.85;;;16.70;80.10;;;;;;5030214;28;20062;-68
2021/09/01 01:45:24;;;;;;;21.45;8.20;;;16.70;80.20;;;;;;5036657;28;20041;-68
2021/09/01 01:47:51;;;;;;;18.25;7.75;;;16.70;80.20;;;;;;5034323;28;20041;-68
2021/09/01 01:50:16;;;;;;;19.52;8.48;;;16.70;80.20;;;;;;5031164;28;20044;-70
2021/09/01 01:52:42;;;;;;;16.70;7.82;;;16.70;80.10;;;;;;5032420;28;20026;-70
2021/09/01 01:55:10;;;;;;;16.25;8.00;;;16.70;80.10;;;;;;5023465;28;20030;-71
2021/09/01 01:57:36;;;;;;;18.50;8.05;;;16.70;80.10;;;;;;5017052;28;20172;-68
2021/09/01 02:00:04;;;;;;;15.82;7.22;;;16.70;80.00;;;;;;5016135;28;20492;-70
2021/09/01 02:02:30;;;;;;;15.35;7.60;;;16.70;80.00;;;;;;5008424;28;20030;-70
2021/09/01 02:04:59;;;;;;;16.73;7.38;;;16.70;79.90;;;;;;5029162;28;20115;-70
2021/09/01 02:07:27;;;;;;;21.08;8.00;;;16.70;79.90;;;;;;5028363;28;20034;-69
2021/09/01 02:09:52;;;;;;;16.27;7.53;;;16.70;79.60;;;;;;5024862;28;20029;-69
2021/09/01 02:12:18;;;;;;;15.32;7.45;;;16.70;79.20;;;;;;5028796;28;20038;-69
2021/09/01 02:14:44;;;;;;;18.08;7.30;;;16.70;79.30;;;;;;5012333;28;20056;-69
2021/09/01 02:17:10;;;;;;;15.48;7.93;;;16.70;79.10;;;;;;5005896;28;20493;-70
2021/09/01 02:19:35;;;;;;;18.17;7.13;;;16.80;79.10;;;;;;5009355;28;20034;-69
2021/09/01 02:22:01;;;;;;;14.07;6.95;;;16.80;79.10;;;;;;5011139;28;20371;-70
2021/09/01 02:24:27;;;;;;;18.30;7.35;;;16.70;79.10;;;;;;5009612;28;20042;-69
2021/09/01 02:26:52;;;;;;;16.58;7.53;;;16.70;79.10;;;;;;5022236;28;20034;-70
2021/09/01 02:29:18;;;;;;;17.02;6.93;;;16.70;79.00;;;;;;5035955;28;20472;-71
2021/09/01 02:31:44;;;;;;;21.65;8.25;;;16.70;78.90;;;;;;5009604;28;20470;-73
2021/09/01 02:34:09;;;;;;;14.48;6.75;;;16.70;78.90;;;;;;4995445;28;20088;-70
2021/09/01 02:36:36;;;;;;;19.02;7.32;;;16.70;78.70;;;;;;5004950;28;20048;-69
2021/09/01 02:39:02;;;;;;;17.98;6.82;;;16.70;78.80;;;;;;5004642;28;20444;-69
2021/09/01 02:41:27;;;;;;;18.98;7.75;;;16.70;78.70;;;;;;5031631;28;20477;-69
2021/09/01 02:43:53;;;;;;;15.30;7.20;;;16.70;78.60;;;;;;5028562;28;20124;-70
2021/09/01 02:46:19;;;;;;;17.38;8.00;;;16.70;78.70;;;;;;5026491;28;20037;-69
2021/09/01 02:48:45;;;;;;;16.35;7.00;;;16.70;78.70;;;;;;5024614;28;20132;-69
2021/09/01 02:51:11;;;;;;;15.57;6.78;;;16.70;78.50;;;;;;5020157;28;20036;-70
2021/09/01 02:53:37;;;;;;;19.92;7.45;;;16.70;78.60;;;;;;5022649;28;20030;-70
2021/09/01 02:56:03;;;;;;;16.95;6.82;;;16.70;78.70;;;;;;5017368;28;20096;-70
2021/09/01 02:58:29;;;;;;;18.63;6.93;;;16.70;78.40;;;;;;5006471;28;20482;-70
2021/09/01 03:00:55;;;;;;;17.70;6.75;;;16.70;78.20;;;;;;5011088;28;20040;-69
2021/09/01 03:03:20;;;;;;;14.85;6.53;;;16.70;77.90;;;;;;5024284;28;20044;-70
2021/09/01 03:05:46;;;;;;;16.08;6.97;;;16.70;77.60;;;;;;5025384;28;20057;-69
2021/09/01 03:08:12;;;;;;;16.58;6.28;;;16.60;77.10;;;;;;5006973;28;20461;-70
2021/09/01 03:10:38;;;;;;;15.30;7.28;;;16.70;76.70;;;;;;5023354;28;20148;-69
2021/09/01 03:13:04;;;;;;;15.27;6.90;;;16.70;76.70;;;;;;5005334;28;20385;-70
2021/09/01 03:15:30;;;;;;;16.75;7.60;;;16.70;76.30;;;;;;5018810;28;20052;-69
2021/09/01 03:17:56;;;;;;;19.48;8.10;;;16.70;75.90;;;;;;5011132;28;20038;-71
2021/09/01 03:20:21;;;;;;;18.50;8.32;;;16.70;75.80;;;;;;5005979;28;20036;-74
2021/09/01 03:22:47;;;;;;;19.38;8.60;;;16.70;75.40;;;;;;5007839;28;20034;-69
2021/09/01 03:25:13;;;;;;;15.90;8.25;;;16.80;75.00;;;;;;5002382;28;20565;-70
2021/09/01 03:27:39;;;;;;;16.52;8.43;;;16.70;75.00;;;;;;4997862;28;20036;-70
2021/09/01 03:30:05;;;;;;;17.98;8.38;;;16.70;75.00;;;;;;5007286;28;20092;-71
2021/09/01 03:32:31;;;;;;;18.42;9.07;;;16.80;74.70;;;;;;5004236;28;20134;-69
2021/09/01 03:34:57;;;;;;;16.30;8.48;;;16.70;74.60;;;;;;5016667;28;20056;-70
2021/09/01 03:37:23;;;;;;;14.48;8.30;;;16.70;74.90;;;;;;5017189;28;20034;-72
2021/09/01 03:39:49;;;;;;;15.50;8.65;;;16.70;75.10;;;;;;5007213;28;20026;-69
2021/09/01 03:42:15;;;;;;;16.58;8.73;;;16.70;75.10;;;;;;5002635;28;20049;-76
2021/09/01 03:44:41;;;;;;;17.15;8.30;;;16.70;75.00;;;;;;5000905;28;20109;-70
2021/09/01 03:47:07;;;;;;;18.13;8.82;;;16.70;75.10;;;;;;5011389;28;20045;-69
2021/09/01 03:49:33;;;;;;;16.60;8.93;;;16.70;75.20;;;;;;5021020;28;20379;-69
2021/09/01 03:51:58;;;;;;;18.33;8.75;;;16.70;75.30;;;;;;5015353;28;20086;-70
2021/09/01 03:54:24;;;;;;;17.63;7.97;;;16.70;75.20;;;;;;5015042;28;20052;-70
2021/09/01 03:56:50;;;;;;;17.63;8.65;;;16.70;75.50;;;;;;4996620;28;20042;-70
2021/09/01 03:59:15;;;;;;;17.02;8.30;;;16.70;75.60;;;;;;5017414;28;20080;-69
2021/09/01 04:01:41;;;;;;;17.13;8.35;;;16.70;75.60;;;;;;5003176;28;20050;-69
2021/09/01 04:04:07;;;;;;;17.42;8.25;;;16.70;75.70;;;;;;5005373;28;20026;-71
2021/09/01 04:06:33;;;;;;;12.38;7.38;;;16.70;75.70;;;;;;5020085;28;20479;-69
2021/09/01 04:09:00;;;;;;;15.02;7.53;;;16.70;75.80;;;;;;5020304;28;20183;-69
2021/09/01 04:11:25;;;;;;;17.27;7.60;;;16.60;75.90;;;;;;5017889;28;20034;-75
2021/09/01 04:13:51;;;;;;;12.88;6.95;;;16.60;76.00;;;;;;5016535;28;20030;-70
2021/09/01 04:16:17;;;;;;;13.27;6.82;;;16.60;76.10;;;;;;5020688;28;20048;-69
2021/09/01 04:18:43;;;;;;;23.20;7.68;;;16.60;76.20;;;;;;5024126;28;20032;-69
2021/09/01 04:21:09;;;;;;;15.27;6.55;;;16.60;76.20;;;;;;5024266;28;20021;-70
2021/09/01 04:23:35;;;;;;;14.95;6.82;;;16.60;76.20;;;;;;5024325;28;20030;-70
2021/09/01 04:26:01;;;;;;;15.43;6.25;;;16.60;76.10;;;;;;5018919;28;20487;-74
2021/09/01 04:28:26;;;;;;;12.02;5.80;;;16.60;76.30;;;;;;5004716;28;20054;-71
2021/09/01 04:30:52;;;;;;;14.70;6.22;;;16.60;76.30;;;;;;5019118;28;20029;-68
2021/09/01 04:33:18;;;;;;;17.42;7.20;;;16.60;76.50;;;;;;5014315;28;20129;-70
2021/09/01 04:35:44;;;;;;;13.82;7.07;;;16.60;76.30;;;;;;5015952;28;20064;-68
2021/09/01 04:38:10;;;;;;;14.23;6.18;;;16.50;76.20;;;;;;5028906;28;20033;-69
2021/09/01 04:40:35;;;;;;;14.20;6.40;;;16.60;76.30;;;;;;5032360;28;20484;-68
2021/09/01 04:43:01;;;;;;;15.32;6.63;;;16.60;76.40;;;;;;5028556;28;20167;-69
2021/09/01 04:45:27;;;;;;;14.85;6.55;;;16.50;76.50;;;;;;5019087;28;20065;-69
2021/09/01 04:47:53;;;;;;;16.58;6.45;;;16.60;76.40;;;;;;5028412;28;20373;-68
2021/09/01 04:50:18;;;;;;;13.93;6.28;;;16.60;76.50;;;;;;5019226;28;20037;-69
2021/09/01 04:52:44;;;;;;;13.27;6.13;;;16.50;76.60;;;;;;5026453;28;20029;-69
2021/09/01 04:55:10;;;;;;;14.20;6.53;;;16.50;76.70;;;;;;5023445;28;20025;-71
2021/09/01 04:57:36;;;;;;;14.77;5.90;;;16.60;76.70;;;;;;5026862;28;20040;-69
2021/09/01 05:00:05;;;;;;;14.57;6.78;;;16.50;76.60;;;;;;5022763;28;20408;-71
2021/09/01 05:02:30;;;;;;;15.55;6.25;;;16.50;76.60;;;;;;5021483;28;20496;-68
2021/09/01 05:04:56;;;;;;;13.68;6.28;;;16.50;76.60;;;;;;5031549;28;20034;-69
2021/09/01 05:07:21;;;;;;;14.00;6.07;;;16.50;76.50;;;;;;5019267;28;20036;-69
2021/09/01 05:09:47;;;;;;;14.30;6.30;;;16.50;76.50;;;;;;5024057;28;20116;-68
2021/09/01 05:12:13;;;;;;;17.15;6.47;;;16.50;76.50;;;;;;5025938;28;20663;-68
2021/09/01 05:14:38;;;;;;;15.88;6.57;;;16.50;76.70;;;;;;5013377;28;20030;-68
2021/09/01 05:17:04;;;;;;;15.07;6.45;;;16.60;76.60;;;;;;5023512;28;20043;-68
2021/09/01 05:19:30;;;;;;;13.82;6.85;;;16.50;76.80;;;;;;5021712;28;20153;-69
2021/09/01 05:21:59;;;;;;;15.38;6.15;;;16.50;77.10;;;;;;5008005;28;20468;-68
2021/09/01 05:24:48;;;;;;;16.42;6.57;;;16.50;77.30;;;;;;5027006;28;20402;-68
2021/09/01 05:27:20;;;;;;;15.85;6.13;;;16.50;77.40;;;;;;5020657;28;20084;-67
2021/09/01 05:29:48;;;;;;;17.42;7.05;;;16.50;77.50;;;;;;5027460;28;20041;-69
2021/09/01 05:32:18;;;;;;;19.73;6.90;;;16.50;77.50;;;;;;5029382;28;20044;-69
2021/09/01 05:34:46;;;;;;;16.45;6.55;;;16.50;77.50;;;;;;5023093;28;20104;-69
2021/09/01 05:37:13;;;;;;;16.75;7.25;;;16.50;77.60;;;;;;5022765;28;20045;-68
2021/09/01 05:39:46;;;;;;;15.15;6.45;;;16.50;77.70;;;;;;5020456;28;20037;-68
2021/09/01 05:42:13;;;;;;;17.02;6.90;;;16.60;77.70;;;;;;5020147;28;20044;-68
2021/09/01 05:44:40;;;;;;;15.80;6.55;;;16.50;77.90;;;;;;5019867;28;20048;-68
2021/09/01 05:47:11;;;;;;;15.20;7.47;;;16.60;77.80;;;;;;5021561;28;20060;-68
2021/09/01 05:49:38;;;;;;;16.25;7.38;;;16.60;77.90;;;;;;5007448;28;20467;-69
2021/09/01 05:52:06;;;;;;;17.17;7.13;;;16.60;77.70;;;;;;5003025;28;20034;-69
2021/09/01 05:54:33;;;;;;;14.95;6.57;;;16.60;77.70;;;;;;5006998;28;20037;-71
2021/09/01 05:57:08;;;;;;;14.65;6.88;;;16.70;77.60;;;;;;5018919;28;20050;-68
2021/09/01 05:59:45;;;;;;;16.73;7.57;;;16.70;77.50;;;;;;5010284;28;20038;-68
2021/09/01 06:02:21;;;;;;;14.63;6.65;;;16.70;77.30;;;;;;5016466;28;20037;-69
2021/09/01 06:04:48;;;;;;;15.75;6.40;;;16.70;77.40;;;;;;5032493;28;20034;-68
2021/09/01 06:07:17;;;;;;;14.13;7.25;;;16.70;77.20;;;;;;5022247;28;20041;-68
2021/09/01 06:09:46;;;;;;;17.80;7.72;;;16.80;77.00;;;;;;5012921;28;20033;-69
2021/09/01 06:12:19;;;;;;;21.05;8.07;;;16.70;77.00;;;;;;5018385;28;20040;-70
2021/09/01 06:14:45;;;;;;;12.85;6.50;;;16.60;77.00;;;;;;5021427;28;20041;-69
2021/09/01 06:17:11;;;;;;;14.82;6.78;;;16.70;77.40;;;;;;5021957;28;20203;-70
2021/09/01 06:19:37;;;;;;;15.15;6.82;;;16.70;77.40;;;;;;5013461;28;20539;-70
2021/09/01 06:22:04;;;;;;;12.75;6.90;;;16.70;77.20;;;;;;5009737;28;20053;-68
2021/09/01 06:24:32;;;;;;;19.20;6.93;;;16.80;77.30;;;;;;5008403;28;20358;-68
2021/09/01 06:27:00;;;;;;;17.50;7.43;;;16.80;77.30;;;;;;5022130;28;20107;-68
2021/09/01 06:29:26;;;;;;;17.40;6.97;;;16.90;77.00;;;;;;5020707;28;20046;-71
2021/09/01 06:31:51;;;;;;;13.18;6.97;;;16.90;77.10;;;;;;5022174;28;20073;-67
2021/09/01 06:34:17;;;;;;;14.15;6.35;;;17.00;76.90;;;;;;5024272;28;20112;-70
2021/09/01 06:36:43;;;;;;;13.98;6.95;;;17.00;76.80;;;;;;5027292;28;20413;-69
2021/09/01 06:39:09;;;;;;;16.08;7.38;;;17.00;76.80;;;;;;5025909;28;20578;-68
2021/09/01 06:41:35;;;;;;;14.05;6.75;;;17.10;76.80;;;;;;5015404;28;20449;-69
2021/09/01 06:44:00;;;;;;;14.18;6.65;;;17.10;76.90;;;;;;5026619;28;20568;-69
2021/09/01 06:46:26;;;;;;;19.20;8.30;;;17.10;76.70;;;;;;5023510;28;20424;-69
2021/09/01 06:48:52;;;;;;;15.45;6.97;;;17.10;76.30;;;;;;5022027;28;20357;-70
2021/09/01 06:51:17;;;;;;;13.85;6.53;;;17.10;76.30;;;;;;5026490;28;20033;-69
2021/09/01 06:53:43;;;;;;;15.82;6.72;;;17.10;76.20;;;;;;5026702;28;20076;-69
2021/09/01 06:56:09;;;;;;;15.82;7.97;;;17.10;76.50;;;;;;5023716;28;20153;-69
2021/09/01 06:58:35;;;;;;;16.80;7.80;;;17.10;76.00;;;;;;5022522;28;20072;-68
2021/09/01 07:01:02;;;;;;;16.33;7.68;;;17.10;75.90;;;;;;5016938;28;20049;-71
2021/09/01 07:03:27;;;;;;;15.93;7.85;;;17.10;75.50;;;;;;5021788;28;20476;-69
2021/09/01 07:05:53;;;;;;;16.80;7.65;;;17.10;75.60;;;;;;5014998;28;20076;-70
2021/09/01 07:08:21;;;;;;;15.93;7.80;;;17.10;75.90;;;;;;5021843;28;20061;-71
2021/09/01 07:10:47;;;;;;;18.15;8.75;;;17.10;75.70;;;;;;5024173;28;20040;-70
2021/09/01 07:13:14;;;;;;;15.73;7.93;;;17.20;75.70;;;;;;5021140;28;20390;-68
2021/09/01 07:15:40;;;;;;;15.15;7.63;;;17.20;75.60;;;;;;5023119;28;20069;-69
2021/09/01 07:18:06;;;;;;;16.25;8.05;;;17.30;75.60;;;;;;5028168;28;20041;-69
2021/09/01 07:20:32;;;;;;;17.98;7.32;;;17.30;76.00;;;;;;5024375;28;20041;-69
2021/09/01 07:22:57;;;;;;;17.88;7.45;;;17.30;75.90;;;;;;5026669;28;20100;-70
2021/09/01 07:25:23;;;;;;;24.15;7.88;;;17.40;75.70;;;;;;5024567;28;20434;-69
2021/09/01 07:27:49;;;;;;;14.88;8.15;;;17.40;75.80;;;;;;5040707;28;20025;-70
2021/09/01 07:30:15;;;;;;;17.63;8.25;;;17.40;75.60;;;;;;5016113;28;20500;-68
2021/09/01 07:32:41;;;;;;;16.30;7.72;;;17.40;75.30;;;;;;5023026;28;20057;-68
2021/09/01 07:35:07;;;;;;;18.98;8.63;;;17.40;75.60;;;;;;5025849;28;20091;-68
2021/09/01 07:37:32;;;;;;;18.13;8.68;;;17.50;75.60;;;;;;5025478;28;20425;-69
2021/09/01 07:39:58;;;;;;;15.18;8.20;;;17.50;75.60;;;;;;5017863;28;20038;-69
2021/09/01 07:42:24;;;;;;;16.77;9.25;;;17.50;75.60;;;;;;5020407;28;20034;-68
2021/09/01 07:44:49;;;;;;;16.40;8.38;;;17.60;75.50;;;;;;5015245;28;20076;-68
2021/09/01 07:47:15;;;;;;;19.58;8.82;;;17.60;75.40;;;;;;5020005;28;20116;-68
2021/09/01 07:49:43;;;;;;;18.92;8.65;;;17.50;75.70;;;;;;5020681;28;20113;-68
2021/09/01 07:52:09;;;;;;;18.23;8.50;;;17.40;76.10;;;;;;5022247;28;20038;-69
2021/09/01 07:54:35;;;;;;;16.33;8.00;;;17.40;75.90;;;;;;5022188;28;20037;-71
2021/09/01 07:57:01;;;;;;;17.10;8.93;;;17.50;75.90;;;;;;5023187;28;20041;-68
2021/09/01 07:59:26;;;;;;;15.88;8.90;;;17.60;75.50;;;;;;5019782;28;20030;-70
2021/09/01 08:01:52;;;;;;;17.58;8.70;;;17.70;75.50;;;;;;5024556;28;20646;-68
2021/09/01 08:04:18;;;;;;;16.88;7.97;;;17.70;75.40;;;;;;5021607;28;20100;-68
2021/09/01 08:06:44;;;;;;;17.60;8.32;;;17.80;75.10;;;;;;5019607;28;20087;-70
2021/09/01 08:09:09;;;;;;;19.92;8.82;;;17.80;74.80;;;;;;5023046;28;20036;-68
2021/09/01 08:11:35;;;;;;;17.27;8.15;;;18.00;75.10;;;;;;5017863;28;20029;-68
2021/09/01 08:14:01;;;;;;;16.13;8.60;;;18.10;74.20;;;;;;5021026;28;20369;-70
2021/09/01 08:16:27;;;;;;;17.55;8.48;;;18.20;73.90;;;;;;5023258;28;20111;-68
2021/09/01 08:18:53;;;;;;;17.10;7.78;;;18.30;73.80;;;;;;5017570;28;20026;-68
2021/09/01 08:21:19;;;;;;;16.90;7.93;;;18.40;74.00;;;;;;5021766;28;20049;-68
2021/09/01 08:23:45;;;;;;;17.23;8.20;;;18.40;72.50;;;;;;5026029;28;20060;-68
2021/09/01 08:26:11;;;;;;;14.80;7.65;;;18.50;72.80;;;;;;5027226;28;20042;-69
2021/09/01 08:28:36;;;;;;;15.13;7.85;;;18.80;72.50;;;;;;5022268;28;20042;-69
2021/09/01 08:31:02;;;;;;;15.32;8.15;;;19.10;71.30;;;;;;5017683;28;20039;-69
2021/09/01 08:33:28;;;;;;;14.05;7.82;;;19.40;70.60;;;;;;5019963;28;20392;-68
2021/09/01 08:35:53;;;;;;;18.23;7.80;;;19.50;70.40;;;;;;5022783;28;20038;-71
2021/09/01 08:38:19;;;;;;;18.73;7.70;;;19.90;67.40;;;;;;5021137;28;20025;-70
2021/09/01 08:40:48;;;;;;;21.63;7.95;;;20.00;66.10;;;;;;5022281;28;20068;-69
2021/09/01 08:43:17;;;;;;;16.33;6.95;;;20.30;63.90;;;;;;5019180;28;20553;-70
2021/09/01 08:45:45;;;;;;;18.25;7.43;;;20.40;65.10;;;;;;5038832;28;20488;-69
2021/09/01 08:48:13;;;;;;;15.45;6.90;;;20.60;65.40;;;;;;5018969;28;20037;-67
2021/09/01 08:50:38;;;;;;;13.57;7.45;;;20.60;60.80;;;;;;5016967;28;20053;-68
2021/09/01 08:53:04;;;;;;;12.23;5.57;;;20.70;60.50;;;;;;5024250;28;20489;-68
2021/09/01 08:55:30;;;;;;;13.52;6.30;;;20.90;59.90;;;;;;5024610;28;20125;-68
2021/09/01 08:57:55;;;;;;;16.13;6.22;;;21.20;59.20;;;;;;5021690;28;20116;-70
2021/09/01 09:00:21;;;;;;;16.70;6.32;;;21.40;58.20;;;;;;5018933;28;20084;-68
2021/09/01 09:02:58;;;;;;;18.20;6.55;;;21.20;58.20;;;;;;5020355;28;20026;-68
2021/09/01 09:05:31;;;;;;;13.57;5.53;;;21.00;58.30;;;;;;5019549;28;20025;-68
2021/09/01 09:07:57;;;;;;;10.75;4.93;;;20.80;59.60;;;;;;5017006;28;20069;-68
2021/09/01 09:10:33;;;;;;;11.15;5.13;;;20.70;56.50;;;;;;5020736;28;20068;-68
2021/09/01 09:13:04;;;;;;;10.80;5.00;;;21.00;57.10;;;;;;5016688;28;20089;-70
2021/09/01 09:15:31;;;;;;;12.77;5.28;;;21.00;57.10;;;;;;5021337;28;20053;-69
2021/09/01 09:17:57;;;;;;;12.13;5.47;;;21.00;56.90;;;;;;5013766;28;20042;-68
2021/09/01 09:20:34;;;;;;;13.80;5.35;;;20.80;57.30;;;;;;5017055;28;20060;-71
2021/09/01 09:23:04;;;;;;;12.32;5.50;;;20.40;59.00;;;;;;5019212;28;20069;-68
2021/09/01 09:25:31;;;;;;;15.55;5.50;;;20.20;58.50;;;;;;5024923;28;20408;-69
2021/09/01 09:28:07;;;;;;;12.75;5.57;;;20.10;60.60;;;;;;5021091;28;20057;-68
2021/09/01 09:30:35;;;;;;;11.20;5.50;;;20.30;60.40;;;;;;5020593;28;20499;-68
2021/09/01 09:33:18;;;;;;;12.88;5.50;;;20.20;60.30;;;;;;5021093;28;20054;-68
2021/09/01 09:36:02;;;;;;;12.90;5.45;;;20.30;59.30;;;;;;5024656;28;20053;-69
2021/09/01 09:38:42;;;;;;;10.73;5.20;;;20.30;58.50;;;;;;5024645;28;20033;-69
2021/09/01 09:41:29;;;;;;;12.27;5.32;;;20.30;58.90;;;;;;5018543;28;20637;-69
2021/09/01 09:44:05;;;;;;;12.18;5.30;;;20.10;59.70;;;;;;5017638;28;20064;-68
2021/09/01 09:46:44;;;;;;;14.00;5.05;;;20.20;59.60;;;;;;5019595;28;20059;-68
2021/09/01 09:49:09;;;;;;;15.55;5.75;;;20.30;59.00;;;;;;5017395;28;20034;-68
2021/09/01 09:51:41;;;;;;;14.23;6.25;;;20.10;59.80;;;;;;5019103;28;20519;-70
2021/09/01 09:54:15;;;;;;;13.02;6.13;;;20.30;59.50;;;;;;5015468;28;20037;-70
2021/09/01 09:56:42;;;;;;;13.55;5.30;;;20.10;60.90;;;;;;5016977;28;20741;-70
2021/09/01 09:59:12;;;;;;;12.57;6.30;;;20.20;62.00;;;;;;5017497;28;20033;-69
2021/09/01 10:01:38;;;;;;;14.85;6.00;;;20.10;60.80;;;;;;5018538;28;20033;-69
2021/09/01 10:04:05;;;;;;;10.68;5.68;;;19.90;61.70;;;;;;5018379;28;20084;-69
2021/09/01 10:06:31;;;;;;;13.13;6.50;;;19.70;62.00;;;;;;5020996;28;20557;-68
2021/09/01 10:08:57;;;;;;;10.23;5.57;;;19.70;63.00;;;;;;5021659;28;20748;-67
2021/09/01 10:11:24;;;;;;;12.73;6.05;;;19.70;62.40;;;;;;5019412;28;20052;-70
2021/09/01 10:13:52;;;;;;;13.55;6.03;;;19.70;62.70;;;;;;5022087;28;20029;-69
2021/09/01 10:16:21;;;;;;;14.57;5.85;;;19.60;63.80;;;;;;5020807;28;20045;-68
2021/09/01 10:18:52;;;;;;;10.82;4.82;;;19.80;63.60;;;;;;5021639;28;20037;-69
2021/09/01 10:21:23;;;;;;;13.18;4.90;;;19.60;63.90;;;;;;5018861;28;20034;-68
2021/09/01 10:23:49;;;;;;;12.82;5.13;;;19.80;64.90;;;;;;5023021;28;20040;-67
2021/09/01 10:26:32;;;;;;;12.18;5.20;;;19.90;64.40;;;;;;5027110;28;20033;-68
2021/09/01 10:29:01;;;;;;;12.90;5.53;;;19.70;64.80;;;;;;5024769;28;20568;-68
2021/09/01 10:31:36;;;;;;;13.68;5.95;;;19.90;64.80;;;;;;5025722;28;20428;-68
2021/09/01 10:34:21;;;;;;;15.60;6.82;;;20.00;62.80;;;;;;5022498;28;20030;-69
2021/09/01 10:36:49;;;;;;;16.02;6.22;;;19.90;63.60;;;;;;5024935;28;20029;-67
2021/09/01 10:39:28;;;;;;;12.80;5.63;;;20.20;63.80;;;;;;5023092;28;20030;-68
2021/09/01 10:41:54;;;;;;;15.63;5.30;;;20.20;62.40;;;;;;5020693;28;20041;-67
2021/09/01 10:44:41;;;;;;;12.90;5.55;;;20.30;62.60;;;;;;5018615;28;20085;-69
2021/09/01 10:47:07;;;;;;;12.95;5.32;;;20.00;64.10;;;;;;5023138;28;20057;-68
2021/09/01 10:49:54;;;;;;;14.07;5.85;;;20.10;63.50;;;;;;5019084;28;20342;-69
2021/09/01 10:52:21;;;;;;;12.30;5.22;;;20.20;63.90;;;;;;5029267;28;20037;-71
2021/09/01 10:54:49;;;;;;;14.57;5.10;;;20.40;62.60;;;;;;5025884;28;20044;-68
2021/09/01 10:57:22;;;;;;;13.98;5.20;;;20.10;62.30;;;;;;5026148;28;20417;-68
2021/09/01 10:59:48;;;;;;;12.65;4.80;;;20.20;62.40;;;;;;5024762;28;20041;-68
2021/09/01 11:02:16;;;;;;;13.70;5.88;;;20.30;63.30;;;;;;5024586;28;20026;-67
2021/09/01 11:04:52;;;;;;;11.25;5.53;;;20.40;60.90;;;;;;5016790;28;20037;-68
2021/09/01 11:07:23;;;;;;;12.48;6.15;;;20.50;60.90;;;;;;5024292;28;20140;-68
2021/09/01 11:09:57;;;;;;;12.70;5.78;;;20.20;62.20;;;;;;5014034;28;20308;-68
2021/09/01 11:12:23;;;;;;;11.75;5.43;;;20.60;61.10;;;;;;5005488;28;20117;-68
2021/09/01 11:14:50;;;;;;;11.63;5.63;;;21.00;59.60;;;;;;4999665;28;20046;-70
2021/09/01 11:17:18;;;;;;;13.20;5.00;;;21.00;60.50;;;;;;5004370;28;20042;-70
2021/09/01 11:19:47;;;;;;;11.85;4.80;;;21.00;59.80;;;;;;5016943;28;20042;-72
2021/09/01 11:22:15;;;;;;;12.07;4.90;;;21.10;60.50;;;;;;5032358;28;20042;-68
2021/09/01 11:24:46;;;;;;;13.10;4.53;;;21.30;59.50;;;;;;5028781;28;20041;-67
2021/09/01 11:27:14;;;;;;;13.70;4.90;;;21.50;58.50;;;;;;5019601;28;20039;-68
2021/09/01 11:29:41;;;;;;;11.75;5.20;;;21.30;57.10;;;;;;5005899;28;20034;-68
2021/09/01 11:32:06;;;;;;;11.77;4.90;;;21.10;59.10;;;;;;5005437;28;20449;-68
2021/09/01 11:34:32;;;;;;;10.93;5.05;;;20.80;60.30;;;;;;5000444;28;20109;-68
2021/09/01 11:36:58;;;;;;;10.40;4.72;;;20.90;60.10;;;;;;4995134;28;20045;-68
2021/09/01 11:39:24;;;;;;;12.45;4.32;;;20.70;58.90;;;;;;4997223;28;20745;-68
2021/09/01 11:42:01;;;;;;;10.40;4.10;;;20.50;59.80;;;;;;5005752;28;20036;-68
2021/09/01 11:44:27;;;;;;;10.23;4.70;;;20.90;60.50;;;;;;4998786;28;20607;-69
2021/09/01 11:46:53;;;;;;;10.70;4.43;;;21.40;57.10;;;;;;5002699;28;20370;-68
2021/09/01 11:49:19;;;;;;;8.93;3.95;;;22.10;58.90;;;;;;4995896;28;20488;-69
2021/09/01 11:51:47;;;;;;;9.75;4.38;;;22.60;57.20;;;;;;5000157;28;20038;-70
2021/09/01 11:54:14;;;;;;;8.20;3.85;;;22.00;54.70;;;;;;5013870;28;20053;-70
2021/09/01 11:56:40;;;;;;;9.20;4.07;;;21.60;56.80;;;;;;5000876;28;20038;-70
2021/09/01 11:59:09;;;;;;;10.07;4.20;;;21.40;58.20;;;;;;5009563;28;20033;-69
2021/09/01 12:01:56;;;;;;;9.45;4.50;;;21.30;58.50;;;;;;5015116;28;20485;-68
2021/09/01 12:04:23;;;;;;;13.60;4.63;;;21.10;58.60;;;;;;4997057;28;20052;-67
2021/09/01 12:06:56;;;;;;;11.05;4.25;;;21.00;58.80;;;;;;4999541;28;20050;-67
2021/09/01 12:09:26;;;;;;;15.13;5.15;;;20.90;59.70;;;;;;4996399;28;20050;-69
2021/09/01 12:12:00;;;;;;;14.95;5.13;;;20.60;59.70;;;;;;4999869;28;20486;-69
2021/09/01 12:14:30;;;;;;;10.35;4.60;;;20.10;60.20;;;;;;5002186;28;20041;-68
2021/09/01 12:17:16;;;;;;;11.48;4.65;;;20.30;61.60;;;;;;5000851;28;20119;-66
2021/09/01 12:19:49;;;;;;;11.82;5.00;;;20.40;62.20;;;;;;5000400;28;20042;-68
2021/09/01 12:22:36;;;;;;;11.52;5.53;;;20.50;61.70;;;;;;5001384;28;20042;-67
2021/09/01 12:25:07;;;;;;;11.75;4.57;;;20.40;62.60;;;;;;4994900;28;20421;-69
2021/09/01 12:27:38;;;;;;;13.25;5.20;;;20.30;64.00;;;;;;5005672;28;20162;-68
2021/09/01 12:30:08;;;;;;;13.60;5.57;;;20.20;63.90;;;;;;4997824;28;20037;-69
2021/09/01 12:32:34;;;;;;;12.70;5.57;;;20.10;64.40;;;;;;4997429;28;20030;-70
2021/09/01 12:35:02;;;;;;;14.85;5.50;;;20.20;64.00;;;;;;4995759;28;20042;-68
2021/09/01 12:37:38;;;;;;;11.52;5.25;;;20.10;63.50;;;;;;5018709;28;20069;-69
2021/09/01 12:40:08;;;;;;;12.30;5.18;;;20.00;64.10;;;;;;5017681;28;20065;-70
2021/09/01 12:42:37;;;;;;;14.75;5.50;;;20.10;63.00;;;;;;5021381;28;20030;-68
2021/09/01 12:45:18;;;;;;;12.95;5.03;;;20.30;62.20;;;;;;5023660;28;20049;-67